KEWN

Coastal Carolina Regional Airport

New Bern, North Carolina, USA
METAR KEWN 182054Z 25007KT 210V270 10SM FEW041 31/24 A2992 RMK AO2 LTG DSNT E RAB07E23 SLP130 P0002 60002 T03060244 56021
Observed Flight Rules
Aug-18 @ 20:54 UTC (an hour ago) Visual Flight Rules
Wind Visibility Clouds
250° at 7 knots 10 miles
  • Few at 4,100' AGL
Temperatures Readings Precipitation
Current 31°C / 88°F
Dewpoint 24°C / 75°F
Humidity 66%
Altimeter 29.92" Hg
Pressure 1013 hPa
Elevation 3
Current Rain 0.02
METAR KEWN 182054Z 25007KT 210V270 10SM FEW041 31/24 A2992 RMK AO2 LTG DSNT E RAB07E23 SLP130 P0002 60002 T03060244 56021
Observed Flight Rules
Aug-18 @ 20:54 UTC
(an hour ago)
VFR
Wind Visibility
250° at 7 knots 10 miles
Clouds
  • Few at 4,100' AGL
Temperature Dewpoint
31°C / 88°F 24°C / 75°F
Humidity Altimeter Pressure
66% 29.92" Hg 1013 hPa
Current Rain
0.02